Current Weather Conditions: station NFBF1

sailwx.info

Wind from 110 at 9 knots gusting 10

Air temperature 22.4° C

Last reported at 2014-Dec-19 19:54 UTC.
Time now 2014-Dec-19 21:44 UTC

Location: N 25°05' W 081°05'.
View on Google Maps.

See reports from other nearby stations

  
Tides and Currents Weather Stations Pressure Air Temp Water Temp Dewpoint Dewpoint Depression Visibility Wind Speed Wind Dir Waves Ship Positions
date/time (UTC)wind fromknots sea level pressurealtimeterstation pressurevisibilityair tempwater tempwave heightnotes
2014-Dec-19 19:54 110 9 gusting 10 22.4
2014-Dec-19 19:48 110 9 gusting 10 22.3
2014-Dec-19 18:54 120 5 gusting 5 22.1
2014-Dec-19 18:48 110 4 gusting 4 22.1
2014-Dec-19 18:42 120 4 gusting 5 22.0
2014-Dec-19 18:36 110 4 gusting 4 21.9
2014-Dec-19 18:30 120 4 gusting 5 21.8
2014-Dec-19 18:24 120 4 gusting 4 21.8
2014-Dec-19 18:18 120 3 gusting 4 21.8
2014-Dec-19 18:12 130 4 gusting 5 21.7
2014-Dec-19 18:06 130 4 gusting 5 21.6
2014-Dec-19 18:00 120 3 gusting 4 21.7
2014-Dec-19 17:54 120 3 gusting 4 21.8
2014-Dec-19 17:48 110 3 gusting 3 21.8
2014-Dec-19 17:42 100 2 gusting 3 21.7
2014-Dec-19 17:36 090 2 gusting 3 21.5
2014-Dec-19 17:30 100 2 gusting 3 21.6
2014-Dec-19 17:24 120 3 gusting 4 21.6
2014-Dec-19 17:18 120 4 gusting 4 21.5
2014-Dec-19 17:12 130 4 gusting 4 21.5
2014-Dec-19 17:06 120 3 gusting 4 21.7
2014-Dec-19 17:00 110 3 gusting 4 21.8
2014-Dec-19 16:54 100 3 gusting 3 21.6
2014-Dec-19 16:48 090 3 gusting 3 21.7
2014-Dec-19 15:54 060 6 gusting 7 21.4
2014-Dec-19 15:48 060 7 gusting 8 21.2
2014-Dec-19 15:42 060 6 gusting 7 21.1
2014-Dec-19 15:36 060 7 gusting 8 21.0
2014-Dec-19 15:30 060 7 gusting 8 20.8
2014-Dec-19 15:24 060 7 gusting 8 20.7
2014-Dec-19 15:18 060 7 gusting 8 20.5
2014-Dec-19 15:12 070 8 gusting 9 20.3
2014-Dec-19 15:06 070 8 gusting 9 20.2
2014-Dec-19 15:00 060 8 gusting 10 20.2
2014-Dec-19 14:54 060 9 gusting 10 20.2
2014-Dec-19 14:48 060 8 gusting 10 20.1
2014-Dec-19 14:42 060 9 gusting 10 19.9
2014-Dec-19 14:36 050 9 gusting 11 19.7
2014-Dec-19 14:30 060 9 gusting 10 19.5
2014-Dec-19 14:24 060 9 gusting 11 19.3
2014-Dec-19 14:18 060 9 gusting 11 19.2
2014-Dec-19 14:12 060 10 gusting 12 19.0
2014-Dec-19 14:06 060 11 gusting 12 18.9
2014-Dec-19 14:00 060 11 gusting 12 18.8
2014-Dec-19 13:54 060 11 gusting 13 18.6
2014-Dec-19 13:48 060 11 gusting 13 18.4
2014-Dec-19 12:54 050 11 gusting 12 17.8
2014-Dec-19 12:48 050 11 gusting 13 17.7
2014-Dec-19 12:42 050 10 gusting 11 17.7
2014-Dec-19 12:36 050 10 gusting 11 17.6
2014-Dec-19 12:30 050 10 gusting 12 17.5
2014-Dec-19 12:24 050 10 gusting 12 17.6
2014-Dec-19 12:18 050 10 gusting 11 17.6
2014-Dec-19 12:12 050 10 gusting 12 17.6
2014-Dec-19 12:06 050 10 gusting 12 17.6
2014-Dec-19 12:00 050 10 gusting 11 17.6
2014-Dec-19 11:54 050 10 gusting 12 17.5
2014-Dec-19 11:48 050 10 gusting 12 17.4
2014-Dec-19 10:54 040 11 gusting 12 18.0
2014-Dec-19 10:48 050 10 gusting 12 18.0
2014-Dec-19 09:54 050 7 gusting 8 18.3
2014-Dec-19 09:48 050 7 gusting 8 18.3
2014-Dec-19 09:42 050 7 gusting 8 18.3
2014-Dec-19 09:36 050 6 gusting 8 18.4
2014-Dec-19 09:30 050 6 gusting 7 18.4
2014-Dec-19 09:24 050 7 gusting 8 18.4
2014-Dec-19 09:18 050 6 gusting 7 18.5
2014-Dec-19 09:12 050 6 gusting 8 18.6
2014-Dec-19 09:06 050 7 gusting 7 18.6
2014-Dec-19 09:00 060 6 gusting 7 18.6
2014-Dec-19 08:54 060 6 gusting 7 18.6
2014-Dec-19 08:48 060 6 gusting 7 18.6
2014-Dec-19 08:42 060 7 gusting 8 18.7
2014-Dec-19 08:36 050 7 gusting 8 18.7
2014-Dec-19 08:30 050 6 gusting 8 18.6
2014-Dec-19 08:24 050 7 gusting 8 18.6
2014-Dec-19 08:18 040 7 gusting 8 18.6
2014-Dec-19 08:12 040 6 gusting 8 18.6
2014-Dec-19 08:06 040 6 gusting 8 18.6
2014-Dec-19 08:00 050 6 gusting 8 18.6
2014-Dec-19 07:54 050 7 gusting 8 18.6
2014-Dec-19 07:48 050 6 gusting 8 18.6
2014-Dec-19 07:42 060 6 gusting 7 18.6
2014-Dec-19 07:36 050 6 gusting 7 18.7
2014-Dec-19 07:30 050 6 gusting 7 18.6
2014-Dec-19 07:24 050 7 gusting 8 18.7
2014-Dec-19 07:18 050 7 gusting 8 18.8
2014-Dec-19 07:12 040 7 gusting 9 18.8
2014-Dec-19 07:06 040 6 gusting 8 18.8
2014-Dec-19 07:00 040 5 gusting 6 18.8
2014-Dec-19 06:54 040 4 gusting 6 18.8
2014-Dec-19 06:48 040 5 gusting 6 18.8
2014-Dec-19 06:42 040 5 gusting 6 18.9
2014-Dec-19 06:36 040 6 gusting 7 18.9
2014-Dec-19 06:30 030 6 gusting 7 18.9
2014-Dec-19 06:24 040 6 gusting 7 19.0
2014-Dec-19 06:18 040 6 gusting 7 19.0
2014-Dec-19 06:12 040 6 gusting 7 19.0
2014-Dec-19 06:06 040 7 gusting 8 19.0
2014-Dec-19 06:00 040 6 gusting 8 19.1
2014-Dec-19 05:54 050 5 gusting 6 19.1
2014-Dec-19 05:48 050 5 gusting 6 19.1
2014-Dec-19 04:54 040 6 gusting 7 19.2
2014-Dec-19 04:48 040 5 gusting 6 19.3
2014-Dec-19 03:54 040 5 gusting 6 19.4
2014-Dec-19 03:48 040 5 gusting 6 19.4
2014-Dec-19 03:42 040 4 gusting 5 19.4
2014-Dec-19 03:36 040 4 gusting 5 19.4
2014-Dec-19 03:30 040 4 gusting 5 19.3
2014-Dec-19 03:24 030 5 gusting 5 19.4
2014-Dec-19 03:18 040 4 gusting 5 19.4
2014-Dec-19 03:12 040 4 gusting 5 19.4
2014-Dec-19 03:06 040 4 gusting 4 19.3
2014-Dec-19 03:00 040 4 gusting 4 19.3
2014-Dec-19 02:54 040 4 gusting 5 19.4
2014-Dec-19 02:48 040 5 gusting 5 19.4
2014-Dec-19 02:42 040 5 gusting 5 19.4
2014-Dec-19 02:36 050 4 gusting 5 19.5
2014-Dec-19 02:30 050 4 gusting 4 19.6
2014-Dec-19 02:24 050 2 gusting 4 19.6
2014-Dec-19 02:18 050 3 gusting 4 19.6
2014-Dec-19 02:12 050 4 gusting 5 19.7
2014-Dec-19 02:06 040 5 gusting 6 19.8
2014-Dec-19 02:00 050 3 gusting 4 19.8
2014-Dec-19 01:54 19.7
2014-Dec-19 01:48 19.7
2014-Dec-19 00:54 20.0
2014-Dec-19 00:48 060 1 gusting 2 20.0
2014-Dec-19 00:42 050 1 gusting 2 20.0
2014-Dec-19 00:36 050 1 gusting 2 20.0
2014-Dec-19 00:30 050 1 gusting 2 20.0
2014-Dec-19 00:24 040 2 gusting 3 20.1
2014-Dec-19 00:18 030 3 gusting 4 20.1
2014-Dec-19 00:12 040 3 gusting 5 20.1
2014-Dec-19 00:06 040 3 gusting 4 20.2
2014-Dec-19 00:00 030 4 gusting 5 20.2
2014-Dec-18 21:54 360 5 gusting 7 20.3
2014-Dec-18 21:48 010 5 gusting 7 20.2
2014-Dec-18 21:42 010 5 gusting 7 20.2
2014-Dec-18 21:36 010 5 gusting 7 20.2
2014-Dec-18 21:30 360 6 gusting 8 20.2
2014-Dec-18 21:24 360 6 gusting 7 20.2
2014-Dec-18 21:18 360 7 gusting 8 20.2
2014-Dec-18 21:12 360 7 gusting 9 20.2
2014-Dec-18 21:06 360 7 gusting 9 20.3
2014-Dec-18 21:00 340 9 gusting 10 20.3
2014-Dec-18 20:54 340 8 gusting 10 20.4
2014-Dec-18 20:48 350 7 gusting 9 20.4
2014-Dec-18 19:54 340 8 gusting 10 20.7
2014-Dec-18 19:48 340 6 gusting 7 20.9
2014-Dec-18 19:30 340 5 gusting 6 20.7
2014-Dec-18 19:24 340 5 gusting 5 20.6
2014-Dec-18 19:18 320 5 gusting 6 20.5
2014-Dec-18 19:12 320 6 gusting 7 20.4
2014-Dec-18 19:06 330 6 gusting 7 20.4
2014-Dec-18 19:00 330 6 gusting 6 20.5
2014-Dec-18 18:54 330 5 gusting 6 20.7
2014-Dec-18 18:48 310 5 gusting 5 20.6
2014-Dec-18 17:54 350 4 gusting 5 20.1
2014-Dec-18 17:48 330 5 gusting 5 20.1
2014-Dec-18 17:42 320 5 gusting 5 20.1
2014-Dec-18 17:36 350 2 gusting 5 20.1
2014-Dec-18 17:30 360 2 gusting 4 20.0
2014-Dec-18 17:24 010 1 gusting 4 20.1
2014-Dec-18 17:18 350 3 gusting 5 20.0
2014-Dec-18 17:12 320 5 gusting 6 20.0
2014-Dec-18 17:06 320 5 gusting 6 20.1
2014-Dec-18 17:00 320 5 gusting 5 20.1
2014-Dec-18 16:54 320 5 gusting 5 20.1
2014-Dec-18 16:48 310 4 gusting 4 20.0
2014-Dec-18 15:54 20.9
2014-Dec-18 15:48 20.8
2014-Dec-18 15:42 100 1 gusting 2 20.6
2014-Dec-18 15:36 100 2 gusting 3 20.4
2014-Dec-18 15:30 100 2 gusting 3 20.3
2014-Dec-18 15:24 110 3 gusting 3 20.2
2014-Dec-18 15:18 110 3 gusting 4 20.2
2014-Dec-18 15:12 110 3 gusting 4 20.1
2014-Dec-18 15:06 100 3 gusting 4 19.9
2014-Dec-18 15:00 090 3 gusting 4 19.8
2014-Dec-18 14:54 090 4 gusting 4 19.7
2014-Dec-18 14:48 090 4 gusting 5 19.6
2014-Dec-18 14:30 080 5 gusting 5 19.6
2014-Dec-18 14:24 080 4 gusting 5 19.6
2014-Dec-18 14:18 080 4 gusting 5 19.6
2014-Dec-18 14:12 080 4 gusting 5 19.6
2014-Dec-18 14:06 090 4 gusting 5 19.6
2014-Dec-18 14:00 090 4 gusting 5 19.6
2014-Dec-18 13:54 090 4 gusting 4 19.7
2014-Dec-18 13:48 110 4 gusting 5 19.6
2014-Dec-18 12:54 060 6 gusting 7 18.8
2014-Dec-18 12:48 070 5 gusting 5 18.8
2014-Dec-18 12:42 060 5 gusting 6 18.7
2014-Dec-18 12:36 060 5 gusting 5 18.7
2014-Dec-18 12:30 060 5 gusting 5 18.5
2014-Dec-18 12:24 050 5 gusting 6 18.4
2014-Dec-18 12:18 040 6 gusting 7 18.3
2014-Dec-18 12:12 040 6 gusting 7 18.3
2014-Dec-18 12:06 040 6 gusting 7 18.3
2014-Dec-18 12:00 050 6 gusting 8 18.4
2014-Dec-18 11:54 050 7 gusting 8 18.3
2014-Dec-18 11:48 050 6 gusting 7 18.4
2014-Dec-18 11:30 050 6 gusting 7 18.4
2014-Dec-18 11:24 050 7 gusting 8 18.4
2014-Dec-18 10:54 050 8 gusting 9 18.5
2014-Dec-18 10:48 050 7 gusting 9 18.6
2014-Dec-18 09:54 050 6 gusting 7 18.6
2014-Dec-18 09:48 050 6 gusting 7 18.6
2014-Dec-18 09:42 050 7 gusting 7 18.6
2014-Dec-18 09:36 060 7 gusting 8 18.5
2014-Dec-18 09:30 060 7 gusting 7 18.3
2014-Dec-18 09:24 050 7 gusting 8 18.4
2014-Dec-18 09:18 040 7 gusting 8 18.3
2014-Dec-18 09:12 040 7 gusting 8 18.4
2014-Dec-18 09:06 040 7 gusting 8 18.5
2014-Dec-18 09:00 040 7 gusting 8 18.6
2014-Dec-18 08:54 030 7 gusting 9 18.6
2014-Dec-18 08:48 030 8 gusting 9 18.6
2014-Dec-18 07:54 020 6 gusting 7 18.8
2014-Dec-18 07:48 030 6 gusting 7 18.9
2014-Dec-18 06:54 010 7 gusting 8 19.3
2014-Dec-18 06:48 020 7 gusting 7 19.4
2014-Dec-18 06:42 010 7 gusting 9 19.5
2014-Dec-18 06:36 010 8 gusting 9 19.5
2014-Dec-18 06:30 010 8 gusting 10 19.4
2014-Dec-18 06:24 010 8 gusting 9 19.6
2014-Dec-18 06:18 010 8 gusting 9 19.6
2014-Dec-18 06:12 010 8 gusting 10 19.6
2014-Dec-18 06:06 010 6 gusting 7 19.7
2014-Dec-18 06:00 010 6 gusting 7 19.6
2014-Dec-18 05:54 010 6 gusting 7 19.5
2014-Dec-18 05:48 360 6 gusting 7 19.5
2014-Dec-18 05:42 360 5 gusting 6 19.4
2014-Dec-18 05:36 360 5 gusting 5 19.4
2014-Dec-18 05:30 010 5 gusting 5 19.3
2014-Dec-18 05:24 010 5 gusting 6 19.4
2014-Dec-18 05:18 010 6 gusting 6 19.4
2014-Dec-18 05:12 010 5 gusting 6 19.4
2014-Dec-18 05:06 010 5 gusting 5 19.4
2014-Dec-18 05:00 010 5 gusting 6 19.4
2014-Dec-18 04:54 010 5 gusting 6 19.4
2014-Dec-18 04:48 010 4 gusting 4 19.5
2014-Dec-18 04:42 010 5 gusting 5 19.5
2014-Dec-18 04:36 360 5 gusting 5 19.4
2014-Dec-18 04:30 010 4 gusting 5 19.4
2014-Dec-18 04:24 010 4 gusting 5 19.4
2014-Dec-18 04:18 010 4 gusting 4 19.5
2014-Dec-18 04:12 010 4 gusting 4 19.4
2014-Dec-18 04:06 010 4 gusting 4 19.5
2014-Dec-18 04:00 010 4 gusting 4 19.4
2014-Dec-18 03:54 020 4 gusting 4 19.3
2014-Dec-18 03:48 020 4 gusting 4 19.2
2014-Dec-18 03:42 020 3 gusting 4 19.2
2014-Dec-18 03:36 030 3 gusting 4 19.0
2014-Dec-18 03:30 030 3 gusting 3 19.0
2014-Dec-18 03:24 030 3 gusting 3 19.3
2014-Dec-18 03:18 030 3 gusting 3 19.3
2014-Dec-18 03:12 030 3 gusting 3 19.1
2014-Dec-18 03:06 040 3 gusting 3 19.3
2014-Dec-18 03:00 050 2 gusting 3 19.4
2014-Dec-18 02:54 040 2 gusting 3 19.2
2014-Dec-18 02:48 030 2 gusting 3 19.1
2014-Dec-18 01:54 19.5
2014-Dec-18 01:48 19.4
2014-Dec-18 00:54 19.6
2014-Dec-18 00:48 19.8
2014-Dec-18 00:42 19.8
2014-Dec-18 00:36 19.8
2014-Dec-18 00:30 19.8
2014-Dec-18 00:24 19.8
2014-Dec-18 00:18 19.8
2014-Dec-18 00:12 350 1 gusting 2 19.8
2014-Dec-18 00:06 19.8
2014-Dec-18 00:00 19.8
2014-Dec-17 23:30 330 2 gusting 2 19.9
2014-Dec-17 23:24 330 2 gusting 3 19.9
2014-Dec-17 23:18 330 3 gusting 4 19.9
2014-Dec-17 23:12 320 3 gusting 4 19.9
2014-Dec-17 23:06 320 3 gusting 4 20.0
2014-Dec-17 23:00 320 3 gusting 4 20.1
2014-Dec-17 22:54 320 3 gusting 4 20.1
2014-Dec-17 22:48 320 3 gusting 4 20.1
2014-Dec-17 21:54 300 2 gusting 3 20.9
2014-Dec-17 21:48 300 3 gusting 4 20.9
2014-Dec-17 21:42 360 2 gusting 4 20.8
2014-Dec-17 21:36 360 1 gusting 4 20.8
2014-Dec-17 21:30 20.8
2014-Dec-17 21:24 21.0
2014-Dec-17 21:18 340 2 gusting 4 21.1
2014-Dec-17 21:12 310 2 gusting 3 21.1
2014-Dec-17 21:06 290 3 gusting 3 21.1
2014-Dec-17 21:00 340 1 gusting 3 21.1